-12.4C
пасмурно
пасмурно
Дата и времяТемператураДавление, мм рт.ст.Влажность, %Осадки
МинимумМаксимум
05.03.2024 17:00-12.4C-12.4C75292небольшой снег
05.03.2024 20:00-15.14C-13.31C75393пасмурно
05.03.2024 23:00-19.53C-17.15C75496пасмурно
06.03.2024 02:00-23.98C-23.98C75698облачно с прояснениями
06.03.2024 05:00-24.93C-24.93C75799переменная облачность
06.03.2024 08:00-24.28C-24.28C75898облачно с прояснениями
06.03.2024 11:00-19.31C-19.31C75992облачно с прояснениями
06.03.2024 14:00-17.18C-17.18C75988пасмурно
06.03.2024 17:00-18.81C-18.81C76093пасмурно
06.03.2024 20:00-21.55C-21.55C76098пасмурно
06.03.2024 23:00-21.44C-21.44C75999пасмурно
07.03.2024 02:00-20.96C-20.96C75998пасмурно
07.03.2024 05:00-20.23C-20.23C75998пасмурно
07.03.2024 08:00-20.73C-20.73C75997пасмурно
07.03.2024 11:00-18.6C-18.6C75992пасмурно
07.03.2024 14:00-16.88C-16.88C75989пасмурно
07.03.2024 17:00-18.1C-18.1C75994пасмурно
07.03.2024 20:00-18.72C-18.72C75996пасмурно
07.03.2024 23:00-16.21C-16.21C75896пасмурно
08.03.2024 02:00-16.31C-16.31C75695пасмурно
08.03.2024 05:00-15.36C-15.36C75695небольшой снег
08.03.2024 08:00-14.06C-14.06C75594небольшой снег
08.03.2024 11:00-11.37C-11.37C75491небольшой снег
08.03.2024 14:00-9.38C-9.38C75491небольшой снег
08.03.2024 17:00-9.18C-9.18C75493небольшой снег
08.03.2024 20:00-9.42C-9.42C75494небольшой снег
08.03.2024 23:00-9.33C-9.33C75495небольшой снег
09.03.2024 02:00-8.97C-8.97C75495небольшой снег
09.03.2024 05:00-9.84C-9.84C75596небольшой снег
09.03.2024 08:00-9.78C-9.78C75696небольшой снег
09.03.2024 11:00-6.99C-6.99C75690небольшой снег
09.03.2024 14:00-5.82C-5.82C75687небольшой снег
09.03.2024 17:00-7.1C-7.1C75696небольшой снег
09.03.2024 20:00-8.99C-8.99C75696небольшой снег
09.03.2024 23:00-9C-9C75696небольшой снег
10.03.2024 02:00-8.83C-8.83C75696небольшой снег
10.03.2024 05:00-10.37C-10.37C75697небольшой снег
10.03.2024 08:00-10.55C-10.55C75696небольшой снег
10.03.2024 11:00-8.12C-8.12C75689небольшой снег
10.03.2024 14:00-6.85C-6.85C75687небольшой снег
Дата и время наблюдения: 05.03.2024 16:49:23